METAR AND TAF INFORMATION
METAR FOR LPMA
ADDS - METARS form results

(1408 UTC 22 April 2018)
Data provider http://aviationweather.gov/adds/metars/
 
METAR text: LPMA 221400Z 35010KT 300V040 9999 SCT016 19/12 Q1015
Conditions at: LPMA (FUNCHAL/MADEIRA , PT) observed 1400 UTC 22 April 2018
Temperature: 19.0°C (66°F)
Dewpoint: 12.0°C (54°F) [RH = 64%]
Pressure (altimeter): 29.97 inches Hg (1015.0 mb)
Winds: from the N (350 degrees) at 12 MPH (10 knots; 5.2 m/s)
Visibility: 6 or more miles (10+ km)
Ceiling: at least 12,000 feet AGL
Clouds: scattered clouds at 1600 feet AGL
Weather: no significant weather observed at this time

METAR text: LPMA 221330Z VRB08G18KT 9999 SCT016 19/12 Q1016
Conditions at: LPMA (FUNCHAL/MADEIRA , PT) observed 1330 UTC 22 April 2018
Temperature: 19.0°C (66°F)
Dewpoint: 12.0°C (54°F) [RH = 64%]
Pressure (altimeter): 30.00 inches Hg (1016.0 mb)
Winds: variable direction winds at 9 MPH (8 knots; 4.2 m/s)
gusting to 21 MPH (18 knots; 9.4 m/s)
Visibility: 6 or more miles (10+ km)
Ceiling: at least 12,000 feet AGL
Clouds: scattered clouds at 1600 feet AGL
Weather: no significant weather observed at this time

Forecast for: LPMA (FUNCHAL/MADEIRA , PT)
Text: TAF LPMA 221100Z 2212/2312 36015KT 9999 SCT016
Forecast period: 1200 UTC 22 April 2018 to 1200 UTC 23 April 2018
Forecast type: FROM: standard forecast or significant change
Winds: from the N (360 degrees) at 17 MPH (15 knots; 7.8 m/s)
Visibility: 6 or more miles (10+ km)
Clouds: scattered clouds at 1600 feet AGL
Weather: no significant weather forecast for this period
Forecast for: LPMA (FUNCHAL/MADEIRA , PT)
Text: TAF LPMA 221100Z 2212/2312 36015KT 9999 SCT016
Forecast period: 1200 UTC 22 April 2018 to 1200 UTC 23 April 2018
Forecast type: FROM: standard forecast or significant change
Winds: from the N (360 degrees) at 17 MPH (15 knots; 7.8 m/s)
Visibility: 6 or more miles (10+ km)
Clouds: scattered clouds at 1600 feet AGL
Weather: no significant weather forecast for this period
Forecast for: LPMA (FUNCHAL/MADEIRA , PT)
Text: TAF LPMA 221100Z 2212/2312 36015KT 9999 SCT016
Forecast period: 1200 UTC 22 April 2018 to 1200 UTC 23 April 2018
Forecast type: TEMPORARY: The following changes expected for less than half the time period
Winds: from the N (10 degrees) at 23 MPH (20 knots; 10.4 m/s)
gusting to 38 MPH (33 knots; 17.2 m/s)
Visibility: 5 miles (8 km)
Ceiling: 1500 feet AGL
Clouds: broken clouds at 1500 feet AGL
few clouds at 1800 feet AGL
Weather: SHRA  (rain showers)
Forecast for: LPMA (FUNCHAL/MADEIRA , PT)
Text: TAF LPMA 221100Z 2212/2312 36015KT 9999 SCT016
Forecast period: 1200 UTC 22 April 2018 to 1200 UTC 23 April 2018
Forecast type: TEMPORARY: The following changes expected for less than half the time period
Winds: from the N (10 degrees) at 23 MPH (20 knots; 10.4 m/s)
gusting to 38 MPH (33 knots; 17.2 m/s)
Visibility: 5 miles (8 km)
Ceiling: 1500 feet AGL
Clouds: broken clouds at 1500 feet AGL
few clouds at 1800 feet AGL
Weather: SHRA  (rain showers)
Forecast for: LPMA (FUNCHAL/MADEIRA , PT)
Text: TAF LPMA 221100Z 2212/2312 36015KT 9999 SCT016
Forecast period: 1200 to 1800 UTC 22 April 2018
Forecast type: TEMPORARY: The following changes expected for less than half the time period
Visibility: 3 miles (5 km)
Clouds: scattered clouds at 1800 feet AGL
Weather: TSRA  (rain associated with thunderstorm(s))
Forecast for: LPMA (FUNCHAL/MADEIRA , PT)
Text: TAF LPMA 221100Z 2212/2312 36015KT 9999 SCT016
Forecast period: 1200 to 1800 UTC 22 April 2018
Forecast type: TEMPORARY: The following changes expected for less than half the time period
Visibility: 3 miles (5 km)
Clouds: scattered clouds at 1800 feet AGL
Weather: TSRA  (rain associated with thunderstorm(s))

 AIRPORT MAP

 RUNWAY INFORMATION
Runway 05 Runway length 9110 ft Runway width 148 ft
Runway elevation 147 ft Runway displaced threshold 480 ft Runway heading 45
Runway 23 Runway length 9110 ft Runway width 148 ft
Runway elevation 192 ft Runway displaced threshold 490 ft Runway heading 225

 AIRPORT FREQUENCIES
Type APP Name APP Frequency 119.2 MHZ
Type TWR Name TWR Frequency 118.35 MHZ

 AIRPORT NEAR NAVIGATION AIDS
Type VOR-DME Name Madeira Frequency 112200 KHZ
Type NDB Name Madeira Frequency 318 KHZ



Powered by Virtual Airlines Manager [v2.6.2]